Time;durP1;ratioP1;P1;durP2;ratioP2;P2;SDS_P1;SDS_P2;PMS_P1;PMS_P2;Temp;Humidity;BMP_temperature;BMP_pressure;BME280_temperature;BME280_humidity;BME280_pressure;Samples;Min_cycle;Max_cycle;Signal;HPM_P1;HPM_P2
2022/03/17 00:00:37;;;;;;;;;;;;;;;10.82;76.62;101834.50;5004154;28;20285;-73
2022/03/17 00:03:03;;;;;;;;;;;;;;;10.85;76.84;101828.28;4986009;28;19921;-74
2022/03/17 00:05:28;;;;;;;;;;;;;;;10.81;77.82;101831.91;5004350;28;20064;-76
2022/03/17 00:07:53;;;;;;;;;;;;;;;10.68;78.85;101831.44;5004414;28;20020;-75
2022/03/17 00:10:19;;;;;;;;;;;;;;;10.74;78.87;101827.75;4986670;28;19922;-75
2022/03/17 00:12:44;;;;;;;;;;;;;;;10.74;79.33;101833.88;5003255;28;20058;-78
2022/03/17 00:15:10;;;;;;;;;;;;;;;10.74;79.50;101831.25;5010077;28;20404;-75
2022/03/17 00:17:36;;;;;;;;;;;;;;;10.62;79.99;101826.38;5014098;28;19922;-74
2022/03/17 00:20:02;;;;;;;;;;;;;;;10.61;80.38;101825.50;5004254;28;20006;-74
2022/03/17 00:22:27;;;;;;;;;;;;;;;10.64;80.25;101829.81;5002199;28;19952;-76
2022/03/17 00:24:54;;;;;;;;;;;;;;;10.65;80.36;101819.25;5005298;28;20508;-76
2022/03/17 00:27:20;;;;;;;;;;;;;;;10.61;80.50;101824.66;5002379;28;19932;-75
2022/03/17 00:29:46;;;;;;;;;;;;;;;10.69;79.66;101820.03;5005724;28;19926;-75
2022/03/17 00:32:11;;;;;;;;;;;;;;;10.56;80.89;101827.44;5003754;28;20388;-77
2022/03/17 00:35:35;;;;;;;;;;;;;;;10.55;81.00;101823.09;5018973;28;19940;-75
2022/03/17 00:37:24;;;;;;;;;;;;;;;10.51;81.17;101824.94;4999183;28;20016;-75
2022/03/17 00:39:49;;;;;;;;;;;;;;;10.50;81.78;101835.50;5003330;28;19932;-77
2022/03/17 00:42:15;;;;;;;;;;;;;;;10.43;82.42;101828.72;5001317;28;19929;-77
2022/03/17 00:44:41;;;;;;;;;;;;;;;10.41;82.94;101846.28;4994015;28;19985;-77
2022/03/17 00:47:07;;;;;;;;;;;;;;;10.39;83.66;101840.19;4983128;28;20017;-72
2022/03/17 00:49:32;;;;;;;;;;;;;;;10.41;83.51;101843.66;4973385;28;20017;-76
2022/03/17 00:51:57;;;;;;;;;;;;;;;10.33;84.43;101844.72;4983666;28;19953;-75
2022/03/17 00:54:22;;;;;;;;;;;;;;;10.30;85.58;101838.69;4982390;28;20388;-74
2022/03/17 00:56:48;;;;;;;;;;;;;;;10.22;86.32;101838.91;4983497;28;19943;-72
2022/03/17 00:59:14;;;;;;;;;;;;;;;10.18;87.43;101834.66;4983427;28;19918;-72
2022/03/17 01:01:39;;;;;;;;;;;;;;;10.11;88.02;101830.50;4982812;28;19922;-73
2022/03/17 01:04:04;;;;;;;;;;;;;;;10.04;88.71;101828.03;4983459;28;19922;-70
2022/03/17 01:06:29;;;;;;;;;;;;;;;10.14;88.54;101828.63;4983017;28;19926;-75
2022/03/17 01:08:55;;;;;;;;;;;;;;;10.01;89.64;101828.13;4983139;28;19972;-74
2022/03/17 01:11:20;;;;;;;;;;;;;;;9.97;90.15;101823.88;4981836;28;19926;-73
2022/03/17 01:13:45;;;;;;;;;;;;;;;9.89;90.66;101833.72;4983017;28;19932;-73
2022/03/17 01:16:10;;;;;;;;;;;;;;;9.85;91.33;101829.47;4982960;28;20513;-74
2022/03/17 01:18:36;;;;;;;;;;;;;;;9.87;91.41;101814.53;4982483;28;19925;-74
2022/03/17 01:21:01;;;;;;;;;;;;;;;9.78;91.70;101823.50;4984117;28;19918;-75
2022/03/17 01:23:26;;;;;;;;;;;;;;;9.90;91.42;101824.94;4992201;28;20030;-74
2022/03/17 01:25:52;;;;;;;;;;;;;;;9.86;91.67;101821.56;4966879;28;20020;-73
2022/03/17 01:28:17;;;;;;;;;;;;;;;9.89;91.13;101821.44;4983970;28;19925;-73
2022/03/17 01:30:42;;;;;;;;;;;;;;;9.98;91.27;101825.59;4981544;28;20041;-74
2022/03/17 01:33:08;;;;;;;;;;;;;;;9.83;92.01;101824.25;4982988;28;19918;-73
2022/03/17 01:35:33;;;;;;;;;;;;;;;9.80;92.76;101828.75;4983052;28;20477;-74
2022/03/17 01:37:58;;;;;;;;;;;;;;;9.79;93.48;101827.00;4985524;28;20484;-74
2022/03/17 01:40:24;;;;;;;;;;;;;;;9.68;94.38;101835.16;4984505;28;19926;-73
2022/03/17 01:42:49;;;;;;;;;;;;;;;9.69;95.09;101835.16;4987852;28;19921;-72
2022/03/17 01:45:16;;;;;;;;;;;;;;;9.72;95.21;101828.94;4999671;28;19937;-72
2022/03/17 01:47:43;;;;;;;;;;;;;;;9.59;96.25;101834.53;5005452;28;19922;-73
2022/03/17 01:50:11;;;;;;;;;;;;;;;9.54;96.90;101832.91;5005732;28;19918;-75
2022/03/17 01:52:36;;;;;;;;;;;;;;;9.48;97.94;101833.94;5004825;28;19917;-73
2022/03/17 01:55:02;;;;;;;;;;;;;;;9.44;98.23;101835.78;5005955;28;20377;-73
2022/03/17 01:57:27;;;;;;;;;;;;;;;9.46;99.08;101834.88;5006034;28;19996;-73
2022/03/17 01:59:53;;;;;;;;;;;;;;;9.40;99.30;101831.50;5006056;28;19960;-71
2022/03/17 02:02:18;;;;;;;;;;;;;;;9.34;99.96;101842.16;5005354;28;20531;-73
2022/03/17 02:04:44;;;;;;;;;;;;;;;9.27;100.00;101840.59;5005341;28;19921;-74
2022/03/17 02:07:11;;;;;;;;;;;;;;;9.25;100.00;101856.38;5005520;28;19960;-71
2022/03/17 02:09:37;;;;;;;;;;;;;;;9.25;100.00;101852.91;5005918;28;20314;-71
2022/03/17 02:14:47;;;;;;;;;;;;;;;9.23;100.00;101868.66;5005408;28;19922;-74
2022/03/17 02:17:12;;;;;;;;;;;;;;;9.20;100.00;101880.97;5037305;28;19921;-71
2022/03/17 02:19:38;;;;;;;;;;;;;;;9.12;100.00;101883.78;5006464;28;19929;-73
2022/03/17 02:22:03;;;;;;;;;;;;;;;9.10;100.00;101896.06;5005093;28;20013;-73
2022/03/17 02:27:11;;;;;;;;;;;;;;;8.63;100.00;101927.69;5005266;28;20622;-73
2022/03/17 02:29:37;;;;;;;;;;;;;;;8.45;100.00;101929.75;5005311;28;20027;-73
2022/03/17 02:32:03;;;;;;;;;;;;;;;8.23;100.00;101931.06;5004934;28;19922;-72
2022/03/17 02:34:28;;;;;;;;;;;;;;;8.12;100.00;101931.28;5004670;28;19925;-73
2022/03/17 02:36:54;;;;;;;;;;;;;;;7.92;100.00;101934.28;5005303;28;19952;-74
2022/03/17 02:39:20;;;;;;;;;;;;;;;7.73;100.00;101930.22;5005148;28;20407;-73
2022/03/17 02:41:46;;;;;;;;;;;;;;;7.69;100.00;101932.91;5004655;28;20380;-73
2022/03/17 02:44:12;;;;;;;;;;;;;;;7.52;100.00;101936.66;5004301;28;19933;-73
2022/03/17 02:46:37;;;;;;;;;;;;;;;7.56;100.00;101940.09;5004873;28;20020;-71
2022/03/17 02:49:03;;;;;;;;;;;;;;;7.53;100.00;101940.16;5005063;28;19964;-73
2022/03/17 02:51:28;;;;;;;;;;;;;;;7.52;100.00;101939.28;5006525;28;20359;-73
2022/03/17 02:53:54;;;;;;;;;;;;;;;7.45;100.00;101961.19;5012000;28;19928;-73
2022/03/17 02:56:19;;;;;;;;;;;;;;;7.41;100.00;101957.78;5005134;28;19981;-73
2022/03/17 02:58:44;;;;;;;;;;;;;;;7.35;100.00;101975.31;5004796;28;20399;-74
2022/03/17 03:01:09;;;;;;;;;;;;;;;7.35;100.00;101975.31;5005091;28;19921;-74
2022/03/17 03:03:35;;;;;;;;;;;;;;;7.30;100.00;101979.72;5004801;28;19918;-74
2022/03/17 03:06:00;;;;;;;;;;;;;;;7.27;100.00;101986.75;5007417;28;20439;-73
2022/03/17 03:08:27;;;;;;;;;;;;;;;7.31;100.00;101995.41;5009008;28;19922;-73
2022/03/17 03:10:52;;;;;;;;;;;;;;;7.29;100.00;102015.47;4999221;28;19926;-73
2022/03/17 03:13:17;;;;;;;;;;;;;;;7.26;100.00;102020.72;5009189;28;19975;-74
2022/03/17 03:15:43;;;;;;;;;;;;;;;7.23;100.00;102024.25;5008546;28;19922;-73
2022/03/17 03:18:08;;;;;;;;;;;;;;;7.23;100.00;102039.94;5008510;28;19952;-74
2022/03/17 03:20:33;;;;;;;;;;;;;;;7.18;100.00;102041.72;5009067;28;19917;-74
2022/03/17 03:22:59;;;;;;;;;;;;;;;7.19;100.00;102046.09;5022695;28;19925;-73
2022/03/17 03:25:24;;;;;;;;;;;;;;;7.11;100.00;102047.94;5028568;28;19921;-75
2022/03/17 03:27:50;;;;;;;;;;;;;;;7.10;100.00;102054.94;5026650;28;19925;-73
2022/03/17 03:30:15;;;;;;;;;;;;;;;7.07;100.00;102057.56;5015161;28;19965;-73
2022/03/17 03:32:42;;;;;;;;;;;;;;;7.15;100.00;102062.72;5008491;28;19927;-72
2022/03/17 03:37:49;;;;;;;;;;;;;;;7.14;100.00;102067.94;5008255;28;19917;-74
2022/03/17 03:40:14;;;;;;;;;;;;;;;7.15;100.00;102078.38;5008088;28;19921;-73
2022/03/17 03:42:39;;;;;;;;;;;;;;;7.15;100.00;102080.13;5008318;28;20392;-73
2022/03/17 03:45:04;;;;;;;;;;;;;;;7.12;100.00;102075.81;5008212;28;19936;-74
2022/03/17 03:47:30;;;;;;;;;;;;;;;7.14;100.00;102097.56;5008384;28;19925;-73
2022/03/17 03:49:55;;;;;;;;;;;;;;;7.06;100.00;102091.53;5008857;28;19917;-72
2022/03/17 03:52:20;;;;;;;;;;;;;;;7.06;100.00;102105.50;5007384;28;19917;-72
2022/03/17 03:54:46;;;;;;;;;;;;;;;7.12;100.00;102110.63;5008091;28;20055;-71
2022/03/17 03:57:11;;;;;;;;;;;;;;;7.13;100.00;102119.34;5008336;28;19968;-72
2022/03/17 03:59:38;;;;;;;;;;;;;;;7.11;100.00;102121.09;5008719;28;19969;-73
2022/03/17 04:02:06;;;;;;;;;;;;;;;7.09;99.86;102130.72;5007940;28;19976;-72
2022/03/17 04:04:34;;;;;;;;;;;;;;;7.06;99.09;102141.19;5022418;28;19925;-72
2022/03/17 04:07:01;;;;;;;;;;;;;;;7.05;99.81;102157.78;5007335;28;19932;-73
2022/03/17 04:09:27;;;;;;;;;;;;;;;7.05;99.71;102160.41;5005971;28;19921;-73
2022/03/17 04:11:53;;;;;;;;;;;;;;;7.04;99.10;102158.66;5008092;28;19925;-73
2022/03/17 04:14:19;;;;;;;;;;;;;;;7.03;98.96;102156.94;5007546;28;20717;-71
2022/03/17 04:16:44;;;;;;;;;;;;;;;7.03;98.56;102170.00;5005655;28;19944;-72
2022/03/17 04:19:10;;;;;;;;;;;;;;;7.01;99.18;102176.97;5006109;28;19929;-73
2022/03/17 04:21:35;;;;;;;;;;;;;;;6.99;97.83;102183.97;5008877;28;19925;-72
2022/03/17 04:24:00;;;;;;;;;;;;;;;6.95;97.84;102185.75;5008975;28;19917;-73
2022/03/17 04:26:26;;;;;;;;;;;;;;;6.93;96.67;102193.59;5029301;28;20004;-72
2022/03/17 04:28:52;;;;;;;;;;;;;;;6.91;97.79;102200.59;5024274;28;19923;-71
2022/03/17 04:31:17;;;;;;;;;;;;;;;6.88;97.05;102213.66;5001962;28;20033;-72
2022/03/17 04:33:43;;;;;;;;;;;;;;;6.86;97.37;102215.41;5005219;28;19956;-71
2022/03/17 04:36:10;;;;;;;;;;;;;;;6.90;96.22;102218.88;5023115;28;20278;-72
2022/03/17 04:38:35;;;;;;;;;;;;;;;6.91;96.89;102226.72;5026124;28;20036;-71
2022/03/17 04:41:03;;;;;;;;;;;;;;;6.89;97.04;102233.69;5014122;28;20016;-72
2022/03/17 04:43:29;;;;;;;;;;;;;;;6.99;96.54;102237.09;5007163;28;20719;-73
2022/03/17 04:45:54;;;;;;;;;;;;;;;6.95;96.13;102238.00;5004682;28;20016;-72
2022/03/17 04:48:19;;;;;;;;;;;;;;;6.90;95.83;102248.50;5005503;28;19930;-73
2022/03/17 04:50:45;;;;;;;;;;;;;;;6.81;96.10;102261.63;5005729;28;19928;-74
2022/03/17 04:55:51;;;;;;;;;;;;;;;6.85;96.36;102286.84;5021182;28;19921;-72
2022/03/17 04:58:17;;;;;;;;;;;;;;;6.79;96.03;102277.28;5005372;28;20007;-72
2022/03/17 05:00:42;;;;;;;;;;;;;;;6.86;96.17;102296.41;5004356;28;19957;-72
2022/03/17 05:03:08;;;;;;;;;;;;;;;6.85;96.16;102310.34;5005806;28;20078;-72
2022/03/17 05:05:33;;;;;;;;;;;;;;;6.82;96.83;102305.16;5006726;28;20277;-71
2022/03/17 05:07:59;;;;;;;;;;;;;;;6.74;96.40;102320.00;5006775;28;19932;-73
2022/03/17 05:10:24;;;;;;;;;;;;;;;6.77;96.05;102328.72;5004035;28;19930;-73
2022/03/17 05:12:49;;;;;;;;;;;;;;;6.72;95.67;102330.47;5006951;28;20354;-73
2022/03/17 05:15:14;;;;;;;;;;;;;;;6.72;95.30;102342.69;5006804;28;19921;-72
2022/03/17 05:17:40;;;;;;;;;;;;;;;6.67;95.03;102336.59;5006397;28;19921;-72
2022/03/17 05:20:08;;;;;;;;;;;;;;;6.70;94.83;102349.66;4988026;28;20435;-72
2022/03/17 05:22:33;;;;;;;;;;;;;;;6.72;94.89;102342.69;5006202;28;19921;-72
2022/03/17 05:24:59;;;;;;;;;;;;;;;6.70;94.97;102349.66;5004489;28;20355;-72
2022/03/17 05:27:25;;;;;;;;;;;;;;;6.62;93.80;102361.00;5004781;28;19929;-72
2022/03/17 05:29:50;;;;;;;;;;;;;;;6.64;94.43;102368.84;5002678;28;20004;-71
2022/03/17 05:32:15;;;;;;;;;;;;;;;6.65;94.66;102381.88;5002529;28;19921;-72
2022/03/17 05:34:41;;;;;;;;;;;;;;;6.65;93.71;102387.09;5003178;28;20364;-72
2022/03/17 05:37:06;;;;;;;;;;;;;;;6.64;94.12;102395.81;5003193;28;19957;-72
2022/03/17 05:39:32;;;;;;;;;;;;;;;6.64;93.70;102401.03;5004707;28;19933;-72
2022/03/17 05:41:57;;;;;;;;;;;;;;;6.61;93.88;102408.00;5004528;28;19921;-72
2022/03/17 05:44:22;;;;;;;;;;;;;;;6.57;94.02;102420.22;5004850;28;19925;-74
2022/03/17 05:46:48;;;;;;;;;;;;;;;6.58;94.09;102428.91;4987726;28;19925;-75
2022/03/17 05:49:13;;;;;;;;;;;;;;;6.53;93.77;102426.31;5005506;28;19924;-75
2022/03/17 05:51:39;;;;;;;;;;;;;;;6.56;93.13;102439.38;5007946;28;20336;-75
2022/03/17 05:54:06;;;;;;;;;;;;;;;6.61;92.73;102445.47;5003985;28;20648;-73
2022/03/17 05:56:31;;;;;;;;;;;;;;;6.58;91.05;102442.84;5006963;28;20328;-71
2022/03/17 05:58:56;;;;;;;;;;;;;;;6.54;90.96;102450.72;5004788;28;19917;-72
2022/03/17 06:01:22;;;;;;;;;;;;;;;6.55;90.44;102453.31;4986296;28;20332;-72
2022/03/17 06:03:47;;;;;;;;;;;;;;;6.60;89.92;102456.78;5004332;28;19921;-73
2022/03/17 06:06:12;;;;;;;;;;;;;;;6.56;89.69;102462.88;5004418;28;19968;-72
2022/03/17 06:08:37;;;;;;;;;;;;;;;6.53;89.07;102457.66;5004603;28;19917;-72
2022/03/17 06:11:04;;;;;;;;;;;;;;;6.54;89.41;102479.44;5004835;28;19933;-71
2022/03/17 06:13:30;;;;;;;;;;;;;;;6.61;88.67;102481.13;5005728;28;19921;-74
2022/03/17 06:15:55;;;;;;;;;;;;;;;6.61;89.04;102478.53;5005453;28;19929;-74
2022/03/17 06:18:20;;;;;;;;;;;;;;;6.61;88.26;102492.47;5002873;28;20017;-74
2022/03/17 06:20:46;;;;;;;;;;;;;;;6.64;87.64;102495.06;5005219;28;19917;-75
2022/03/17 06:23:11;;;;;;;;;;;;;;;6.62;88.08;102509.00;5004907;28;19963;-75
2022/03/17 06:25:37;;;;;;;;;;;;;;;6.75;87.01;102510.69;5004549;28;19929;-75
2022/03/17 06:28:04;;;;;;;;;;;;;;;6.67;86.91;102508.97;4999108;28;20012;-75
2022/03/17 06:30:31;;;;;;;;;;;;;;;6.65;88.07;102522.06;5005288;28;20683;-75
2022/03/17 06:32:57;;;;;;;;;;;;;;;6.62;86.90;102528.13;5003847;28;20273;-75
2022/03/17 06:35:23;;;;;;;;;;;;;;;6.68;86.47;102522.03;5004073;28;19928;-75
2022/03/17 06:37:50;;;;;;;;;;;;;;;6.73;87.31;102542.91;5005161;28;19918;-74
2022/03/17 06:40:16;;;;;;;;;;;;;;;6.78;86.39;102544.63;5005233;28;19931;-73
2022/03/17 06:42:41;;;;;;;;;;;;;;;6.72;85.53;102551.63;5008726;28;19917;-73
2022/03/17 06:45:07;;;;;;;;;;;;;;;6.71;85.72;102552.50;5008694;28;20037;-73
2022/03/17 06:47:32;;;;;;;;;;;;;;;6.80;86.22;102555.94;5010718;28;19932;-73
2022/03/17 06:49:57;;;;;;;;;;;;;;;6.77;84.96;102558.59;5009203;28;21200;-74
2022/03/17 06:52:23;;;;;;;;;;;;;;;6.76;85.21;102574.25;5006043;28;19917;-73
2022/03/17 06:54:49;;;;;;;;;;;;;;;6.84;84.64;102569.84;5009288;28;19917;-73
2022/03/17 06:57:16;;;;;;;;;;;;;;;6.74;83.95;102581.22;5006687;28;19924;-73
2022/03/17 06:59:42;;;;;;;;;;;;;;;6.70;84.93;102589.94;5008267;28;19928;-73
2022/03/17 07:02:07;;;;;;;;;;;;;;;6.77;84.34;102599.50;5008210;28;19918;-73
2022/03/17 07:04:32;;;;;;;;;;;;;;;6.76;84.87;102600.38;5009416;28;20349;-73
2022/03/17 07:06:58;;;;;;;;;;;;;;;6.79;85.31;102609.06;5008668;28;19948;-73
2022/03/17 07:09:23;;;;;;;;;;;;;;;6.83;84.66;102615.19;5008060;28;19918;-72
2022/03/17 07:11:48;;;;;;;;;;;;;;;6.87;85.24;102624.72;5008184;28;19921;-73
2022/03/17 07:14:13;;;;;;;;;;;;;;;7.00;85.41;102627.31;5007745;28;20447;-74
2022/03/17 07:16:39;;;;;;;;;;;;;;;7.01;85.02;102631.66;5009464;28;19952;-72
2022/03/17 07:19:04;;;;;;;;;;;;;;;7.05;85.37;102634.25;5007216;28;19931;-73
2022/03/17 07:21:29;;;;;;;;;;;;;;;7.17;85.05;102629.88;5009971;28;19917;-73
2022/03/17 07:23:55;;;;;;;;;;;;;;;7.23;85.11;102654.25;5008122;28;20028;-72
2022/03/17 07:26:20;;;;;;;;;;;;;;;7.26;85.88;102655.97;5008332;28;19936;-73
2022/03/17 07:28:45;;;;;;;;;;;;;;;7.16;86.01;102668.22;5008025;28;19921;-73
2022/03/17 07:31:10;;;;;;;;;;;;;;;7.11;85.77;102665.59;5008362;28;19971;-72
2022/03/17 07:33:37;;;;;;;;;;;;;;;7.08;86.20;102667.34;5007695;28;19918;-72
2022/03/17 07:36:03;;;;;;;;;;;;;;;7.05;86.76;102677.84;5007447;28;20047;-71
2022/03/17 07:38:29;;;;;;;;;;;;;;;7.05;87.29;102688.28;5010207;28;20436;-72
2022/03/17 07:40:54;;;;;;;;;;;;;;;7.03;86.30;102697.88;5008376;28;19979;-73
2022/03/17 07:43:19;;;;;;;;;;;;;;;7.03;87.03;102701.34;5008223;28;20382;-72
2022/03/17 07:45:47;;;;;;;;;;;;;;;6.96;87.18;102699.63;5007023;28;20412;-73
2022/03/17 07:48:12;;;;;;;;;;;;;;;6.79;86.41;102707.47;5007541;28;20700;-74
2022/03/17 07:50:37;;;;;;;;;;;;;;;6.88;86.41;102712.69;5001571;28;19922;-72
2022/03/17 07:53:03;;;;;;;;;;;;;;;6.87;86.33;102718.78;5002492;28;20388;-73
2022/03/17 07:55:28;;;;;;;;;;;;;;;6.88;85.46;102722.28;5008446;28;20324;-73
2022/03/17 07:57:53;;;;;;;;;;;;;;;6.87;85.79;102718.78;5008012;28;19926;-72
2022/03/17 08:00:19;;;;;;;;;;;;;;;7.04;85.50;102731.84;5007259;28;19922;-73
2022/03/17 08:02:44;;;;;;;;;;;;;;;7.23;84.08;102718.72;5007146;28;20513;-71
2022/03/17 08:05:10;;;;;;;;;;;;;;;7.36;83.55;102720.44;5001566;28;19926;-74
2022/03/17 08:07:35;;;;;;;;;;;;;;;7.43;82.77;102729.13;5007961;28;19925;-74
2022/03/17 08:10:02;;;;;;;;;;;;;;;7.64;82.56;102715.13;5004990;28;19928;-74
2022/03/17 08:12:28;;;;;;;;;;;;;;;7.80;80.54;102715.91;5006973;28;19918;-75
2022/03/17 08:14:53;;;;;;;;;;;;;;;7.71;80.71;102721.19;5007408;28;19918;-74
2022/03/17 08:17:19;;;;;;;;;;;;;;;8.08;81.21;102735.84;5007360;28;20280;-74
2022/03/17 08:19:44;;;;;;;;;;;;;;;8.29;79.32;102734.81;4989473;28;19921;-73
2022/03/17 08:22:09;;;;;;;;;;;;;;;8.37;78.24;102730.44;5007323;28;19921;-73
2022/03/17 08:24:35;;;;;;;;;;;;;;;8.45;76.96;102726.00;5007816;28;19922;-75
2022/03/17 08:27:02;;;;;;;;;;;;;;;8.45;76.71;102733.84;5006543;28;19925;-74
2022/03/17 08:29:27;;;;;;;;;;;;;;;8.54;76.92;102730.34;5007551;28;20020;-74
2022/03/17 08:31:53;;;;;;;;;;;;;;;8.19;77.20;102747.13;5006651;28;20032;-73
2022/03/17 08:34:18;;;;;;;;;;;;;;;8.22;77.79;102754.94;5006983;28;19925;-74
2022/03/17 08:36:44;;;;;;;;;;;;;;;8.56;77.46;102756.53;5006704;28;19949;-74
2022/03/17 08:39:10;;;;;;;;;;;;;;;8.66;75.25;102756.41;5006595;28;19929;-74
2022/03/17 08:41:35;;;;;;;;;;;;;;;9.08;73.23;102736.88;5004733;28;19922;-75
2022/03/17 08:44:00;;;;;;;;;;;;;;;9.05;72.74;102742.97;5005645;28;19918;-74
2022/03/17 08:51:50;;;;;;;;;;;;;;;10.36;67.20;102734.38;5008425;28;19924;-74
2022/03/17 08:54:16;;;;;;;;;;;;;;;11.03;67.59;102742.06;5010157;28;19928;-73
2022/03/17 08:56:42;;;;;;;;;;;;;;;12.08;63.51;102720.69;4998261;28;19948;-75
2022/03/17 08:59:09;;;;;;;;;;;;;;;12.48;60.30;102713.59;4995347;28;19937;-74
2022/03/17 09:01:37;;;;;;;;;;;;;;;13.27;58.50;102714.16;5008270;28;20401;-73
2022/03/17 09:04:03;;;;;;;;;;;;;;;13.31;57.54;102726.38;5005937;28;20031;-74
2022/03/17 09:06:28;;;;;;;;;;;;;;;13.32;56.37;102732.50;5007209;28;19994;-75
2022/03/17 09:08:54;;;;;;;;;;;;;;;14.40;54.19;102728.44;5000838;28;20345;-75
2022/03/17 09:11:19;;;;;;;;;;;;;;;14.69;50.62;102851.88;4997501;28;19929;-74
2022/03/17 09:13:46;;;;;;;;;;;;;;;15.04;51.46;102856.91;5006773;28;19979;-74
2022/03/17 09:16:12;;;;;;;;;;;;;;;15.70;48.66;102865.25;5005207;28;20163;-74
2022/03/17 09:18:37;;;;;;;;;;;;;;;16.08;47.02;102878.03;5007790;28;20377;-74
2022/03/17 09:21:03;;;;;;;;;;;;;;;17.43;43.63;102886.81;5005837;28;20450;-73
2022/03/17 09:23:29;;;;;;;;;;;;;;;17.90;43.06;102885.66;5039307;28;19925;-74
2022/03/17 09:25:55;;;;;;;;;;;;;;;18.76;41.05;102893.22;5021126;28;20324;-74
2022/03/17 09:28:21;;;;;;;;;;;;;;;17.29;44.03;102911.31;5004524;28;19930;-74
2022/03/17 09:30:46;;;;;;;;;;;;;;;16.77;44.73;102919.59;5007917;28;19924;-73
2022/03/17 09:33:11;;;;;;;;;;;;;;;16.28;46.12;102927.66;5006108;28;19922;-73
2022/03/17 09:35:37;;;;;;;;;;;;;;;16.36;46.55;102935.34;5007664;28;19997;-74
2022/03/17 09:38:03;;;;;;;;;;;;;;;15.46;47.87;102944.66;5006375;28;19921;-74
2022/03/17 09:40:29;;;;;;;;;;;;;;;15.16;48.62;102949.19;5008872;28;20014;-73
2022/03/17 09:43:18;;;;;;;;;;;;;;;14.46;49.98;102955.69;5007343;28;20051;-73
2022/03/17 09:45:41;;;;;;;;;;;;;;;14.97;49.54;102949.78;5004304;28;19930;-73
2022/03/17 09:48:08;;;;;;;;;;;;;;;15.34;48.02;102946.84;5005080;28;19921;-73
2022/03/17 09:50:34;;;;;;;;;;;;;;;16.25;46.80;102948.13;5007535;28;19917;-73
2022/03/17 09:52:59;;;;;;;;;;;;;;;17.69;43.46;102937.13;5004722;28;20020;-72
2022/03/17 09:55:25;;;;;;;;;;;;;;;17.19;42.80;102941.00;5005513;28;20068;-74
2022/03/17 09:57:50;;;;;;;;;;;;;;;17.05;43.61;102947.75;5006161;28;20408;-74
2022/03/17 10:00:16;;;;;;;;;;;;;;;16.93;42.51;102950.84;5006078;28;20391;-73
2022/03/17 10:02:41;;;;;;;;;;;;;;;16.10;45.17;102971.63;5008819;28;20495;-74
2022/03/17 10:05:11;;;;;;;;;;;;;;;17.21;44.11;102963.91;5005516;28;20020;-74
2022/03/17 10:07:36;;;;;;;;;;;;;;;16.89;44.02;102971.34;5007170;28;19926;-74
2022/03/17 10:10:02;;;;;;;;;;;;;;;16.02;47.03;102989.59;5005874;28;19925;-74
2022/03/17 10:12:30;;;;;;;;;;;;;;;15.98;46.78;102993.31;5008915;28;19918;-74
2022/03/17 10:14:56;;;;;;;;;;;;;;;15.23;48.72;103006.31;5008047;28;20010;-73
2022/03/17 10:17:29;;;;;;;;;;;;;;;15.80;47.11;103006.22;5010501;28;20285;-73
2022/03/17 10:20:09;;;;;;;;;;;;;;;15.68;49.62;103022.53;5011033;28;19924;-73
2022/03/17 10:22:39;;;;;;;;;;;;;;;16.53;46.00;103007.22;5020877;28;19921;-73
2022/03/17 10:25:05;;;;;;;;;;;;;;;16.47;46.54;103015.41;5028936;28;20008;-74
2022/03/17 10:27:40;;;;;;;;;;;;;;;17.17;45.01;103019.88;5013868;28;20452;-73
2022/03/17 10:30:06;;;;;;;;;;;;;;;17.05;44.83;103026.53;5009195;28;19921;-73
2022/03/17 10:32:31;;;;;;;;;;;;;;;16.83;44.66;103036.19;5010896;28;20505;-74
2022/03/17 10:34:57;;;;;;;;;;;;;;;17.12;44.54;103047.47;5009770;28;19924;-73
2022/03/17 10:37:23;;;;;;;;;;;;;;;16.67;45.55;103064.22;5010093;28;19921;-73
2022/03/17 10:39:50;;;;;;;;;;;;;;;16.48;45.98;103062.25;5011870;28;19917;-73
2022/03/17 10:42:17;;;;;;;;;;;;;;;16.09;46.84;103076.00;5009155;28;19999;-73
2022/03/17 10:44:46;;;;;;;;;;;;;;;14.85;49.25;103087.78;5011045;28;19925;-73
2022/03/17 10:47:11;;;;;;;;;;;;;;;13.76;52.92;103114.38;5007453;28;21639;-73
2022/03/17 10:49:37;;;;;;;;;;;;;;;13.73;52.61;103114.44;5011552;28;20412;-73
2022/03/17 10:52:03;;;;;;;;;;;;;;;13.10;54.99;103123.69;5009011;28;19921;-73
2022/03/17 10:54:28;;;;;;;;;;;;;;;13.25;54.45;103117.22;5011876;28;20242;-73
2022/03/17 10:57:11;;;;;;;;;;;;;;;12.82;57.51;103122.47;5009546;28;20299;-73
2022/03/17 10:59:42;;;;;;;;;;;;;;;12.70;57.91;103125.34;5009132;28;20272;-72
2022/03/17 11:02:08;;;;;;;;;;;;;;;12.95;56.48;103127.53;5008777;28;19952;-73
2022/03/17 11:04:34;;;;;;;;;;;;;;;13.03;56.26;103133.50;5011668;28;19918;-73
2022/03/17 11:06:59;;;;;;;;;;;;;;;13.03;55.91;103138.78;5007533;28;19925;-73
2022/03/17 11:09:25;;;;;;;;;;;;;;;12.25;57.19;103149.88;5009169;28;19928;-72
2022/03/17 11:11:51;;;;;;;;;;;;;;;11.78;59.42;103156.72;5011287;28;19922;-73
2022/03/17 11:14:18;;;;;;;;;;;;;;;11.60;60.45;103164.88;5007746;28;19917;-73
2022/03/17 11:16:46;;;;;;;;;;;;;;;11.52;62.19;103166.75;5009915;28;19929;-73
2022/03/17 11:19:15;;;;;;;;;;;;;;;11.87;61.19;103160.09;5008521;28;19924;-72
2022/03/17 11:21:44;;;;;;;;;;;;;;;11.51;61.74;103165.00;5014233;28;19921;-72
2022/03/17 11:24:17;;;;;;;;;;;;;;;11.60;59.67;103166.63;5028286;28;20711;-72
2022/03/17 11:26:44;;;;;;;;;;;;;;;11.62;61.24;103174.50;5017954;28;19930;-72
2022/03/17 11:29:10;;;;;;;;;;;;;;;11.42;60.30;103176.50;5007756;28;19921;-72
2022/03/17 11:31:51;;;;;;;;;;;;;;;11.42;60.34;103180.91;5009193;28;19940;-72
2022/03/17 11:34:32;;;;;;;;;;;;;;;11.41;61.02;103197.59;5008170;28;19991;-72
2022/03/17 11:37:14;;;;;;;;;;;;;;;11.34;60.32;103188.03;5008770;28;19917;-73
2022/03/17 11:39:47;;;;;;;;;;;;;;;11.41;60.76;103189.69;5007757;28;19929;-73
2022/03/17 11:42:28;;;;;;;;;;;;;;;11.41;59.62;103187.06;5007857;28;19917;-73
2022/03/17 11:45:00;;;;;;;;;;;;;;;11.34;60.46;103191.53;5003757;28;19933;-73
2022/03/17 11:47:26;;;;;;;;;;;;;;;11.46;60.81;103198.41;5009494;28;21047;-74
2022/03/17 11:49:51;;;;;;;;;;;;;;;11.31;62.04;103207.34;5009766;28;19917;-74
2022/03/17 11:52:17;;;;;;;;;;;;;;;11.38;60.63;103203.78;5007293;28;20413;-75
2022/03/17 11:54:42;;;;;;;;;;;;;;;11.22;59.66;103203.09;4987799;28;19922;-74
2022/03/17 11:57:07;;;;;;;;;;;;;;;11.22;58.87;103200.44;5004830;28;19968;-73
2022/03/17 11:59:49;;;;;;;;;;;;;;;11.40;58.22;103201.09;4985346;28;20560;-74
2022/03/17 12:02:16;;;;;;;;;;;;;;;11.46;57.91;103206.31;5005440;28;19944;-72
2022/03/17 12:04:47;;;;;;;;;;;;;;;11.52;59.06;103208.00;5009987;28;20277;-73
2022/03/17 12:07:13;;;;;;;;;;;;;;;11.27;58.37;103200.41;5014413;28;20048;-73
2022/03/17 12:09:39;;;;;;;;;;;;;;;11.15;59.61;103211.91;5012428;28;20015;-73
2022/03/17 12:12:22;;;;;;;;;;;;;;;10.91;60.36;103223.56;5006746;28;19960;-73
2022/03/17 12:14:49;;;;;;;;;;;;;;;11.04;61.77;103227.81;5008854;28;19929;-74
2022/03/17 12:17:17;;;;;;;;;;;;;;;10.91;60.23;103227.09;5006382;28;19956;-73
2022/03/17 12:19:48;;;;;;;;;;;;;;;10.83;61.33;103231.53;5008349;28;20401;-72
2022/03/17 12:22:16;;;;;;;;;;;;;;;10.96;61.83;103227.03;4987542;28;19918;-74
2022/03/17 12:24:41;;;;;;;;;;;;;;;10.99;59.97;103224.34;5004211;28;20013;-73
2022/03/17 12:27:12;;;;;;;;;;;;;;;11.05;59.85;103226.94;5003784;28;20477;-74
2022/03/17 12:29:37;;;;;;;;;;;;;;;11.24;60.01;103218.84;5002983;28;20372;-74
2022/03/17 12:32:03;;;;;;;;;;;;;;;11.13;60.58;103226.88;4999337;28;20016;-75
2022/03/17 12:34:29;;;;;;;;;;;;;;;10.98;61.08;103228.75;5006307;28;19918;-73
2022/03/17 12:36:55;;;;;;;;;;;;;;;10.90;62.48;103233.22;5008246;28;19948;-74
2022/03/17 12:39:28;;;;;;;;;;;;;;;10.94;62.36;103237.56;5002697;28;20008;-74
2022/03/17 12:41:54;;;;;;;;;;;;;;;11.09;62.12;103246.19;4981649;28;19926;-73
2022/03/17 12:44:22;;;;;;;;;;;;;;;10.93;63.15;103238.44;5006000;28;19935;-73
2022/03/17 12:46:47;;;;;;;;;;;;;;;10.87;61.51;103237.63;5008620;28;19971;-73
2022/03/17 12:49:13;;;;;;;;;;;;;;;10.75;60.67;103239.47;5006388;28;19929;-73
2022/03/17 12:51:38;;;;;;;;;;;;;;;10.55;61.61;103244.03;5010087;28;19928;-74